createdAt,value
2023-02-27T07:22:32.610Z,8.85
2023-02-27T07:23:36.289Z,3.67
2023-02-27T07:24:40.163Z,4.95
2023-02-27T07:25:42.934Z,3.50
2023-02-27T07:26:45.731Z,4.80
2023-02-27T07:27:50.890Z,5.03
2023-02-27T07:28:55.029Z,3.75
2023-02-27T07:29:58.079Z,4.50
2023-02-27T07:31:01.102Z,3.87
2023-02-27T07:32:04.156Z,4.82
2023-02-27T07:33:07.373Z,3.87
2023-02-27T07:34:12.106Z,3.65
2023-02-27T07:35:14.926Z,3.60
2023-02-27T07:36:18.008Z,4.40
2023-02-27T07:37:20.997Z,3.10
2023-02-27T07:38:24.553Z,4.15
2023-02-27T07:39:27.689Z,3.83
2023-02-27T07:40:30.572Z,4.07
2023-02-27T07:41:33.574Z,3.83
2023-02-27T07:42:36.534Z,3.67
2023-02-27T07:43:39.251Z,3.25
2023-02-27T07:44:42.345Z,3.58
2023-02-27T07:45:45.448Z,3.78
2023-02-27T07:46:48.305Z,3.15
2023-02-27T07:47:51.120Z,3.20
2023-02-27T07:48:54.579Z,3.20
2023-02-27T07:49:57.994Z,3.42
2023-02-27T07:51:01.550Z,3.30
2023-02-27T07:52:04.518Z,3.80
2023-02-27T07:53:08.158Z,3.83
2023-02-27T07:54:11.202Z,3.30
2023-02-27T07:55:14.933Z,3.58
2023-02-27T07:56:18.423Z,7.53
2023-02-27T07:57:21.370Z,7.30
2023-02-27T07:58:27.761Z,5.57
2023-02-27T07:59:30.575Z,4.53
2023-02-27T08:00:34.502Z,3.67
2023-02-27T08:01:37.533Z,5.47
2023-02-27T08:02:40.955Z,4.10
2023-02-27T08:03:43.864Z,4.00
2023-02-27T08:04:46.735Z,4.15
2023-02-27T08:05:49.517Z,3.95
2023-02-27T08:06:52.558Z,4.45
2023-02-27T08:07:55.491Z,3.95
2023-02-27T08:08:58.358Z,3.10
2023-02-27T08:10:01.141Z,3.50
2023-02-27T08:11:04.186Z,3.30
2023-02-27T08:12:07.431Z,3.67
2023-02-27T08:13:10.316Z,3.00
2023-02-27T08:14:12.991Z,3.30
2023-02-27T08:15:17.151Z,4.62
2023-02-27T08:16:22.669Z,4.47
2023-02-27T08:17:26.041Z,4.28
2023-02-27T08:18:28.830Z,3.50
2023-02-27T08:19:31.966Z,4.23
2023-02-27T08:20:35.184Z,3.37
2023-02-27T08:21:38.369Z,3.22
2023-02-27T08:22:42.467Z,4.22
2023-02-27T08:23:45.719Z,3.47
2023-02-27T08:24:48.435Z,3.30
2023-02-27T08:25:51.487Z,4.22
2023-02-27T08:26:54.497Z,3.30
2023-02-27T08:27:57.602Z,3.50
2023-02-27T08:29:00.496Z,3.83
2023-02-27T08:30:04.720Z,3.67
2023-02-27T08:31:08.252Z,3.40
2023-02-27T08:32:11.660Z,3.53
2023-02-27T08:33:15.343Z,2.83
2023-02-27T08:34:18.207Z,3.53
2023-02-27T08:35:21.841Z,3.25
2023-02-27T08:36:25.479Z,3.45
2023-02-27T08:37:29.599Z,3.92
2023-02-27T08:38:33.436Z,3.70
2023-02-27T08:39:36.243Z,7.57
2023-02-27T08:40:39.113Z,4.77
2023-02-27T08:41:41.959Z,5.78
2023-02-27T08:42:45.063Z,4.37
2023-02-27T08:43:48.867Z,6.07
2023-02-27T08:44:51.855Z,4.62
2023-02-27T08:45:54.883Z,4.72
2023-02-27T08:46:57.808Z,2.97
2023-02-27T08:48:00.594Z,3.40
2023-02-27T08:49:03.771Z,3.62
2023-02-27T08:50:06.841Z,3.75
2023-02-27T08:51:10.255Z,4.23
2023-02-27T08:52:13.174Z,3.53
2023-02-27T08:53:15.968Z,3.62
2023-02-27T08:54:19.716Z,4.15
2023-02-27T08:55:22.526Z,4.10
2023-02-27T08:56:26.843Z,4.03
2023-02-27T08:57:29.939Z,3.83
2023-02-27T08:58:34.746Z,3.92
2023-02-27T08:59:38.086Z,3.90
2023-02-27T09:00:41.206Z,3.10
2023-02-27T09:01:45.030Z,3.10
2023-02-27T09:02:47.823Z,3.20
2023-02-27T09:03:51.050Z,2.90
2023-02-27T09:04:54.196Z,3.33
2023-02-27T09:05:57.073Z,2.90
2023-02-27T09:06:59.938Z,3.10
2023-02-27T09:08:03.795Z,3.40
2023-02-27T09:09:07.079Z,3.45
2023-02-27T09:10:10.856Z,3.45
2023-02-27T09:11:14.369Z,4.07
2023-02-27T09:12:17.103Z,4.23
2023-02-27T09:13:22.110Z,5.03
2023-02-27T09:14:24.962Z,4.80
2023-02-27T09:15:28.920Z,4.47
2023-02-27T09:16:32.061Z,3.92
2023-02-27T09:17:34.936Z,3.87
2023-02-27T09:18:37.836Z,3.30
2023-02-27T09:19:40.716Z,3.47
2023-02-27T09:20:43.852Z,3.92
2023-02-27T09:21:46.897Z,3.17
2023-02-27T09:22:49.952Z,3.30
2023-02-27T09:23:53.129Z,3.65
2023-02-27T09:24:56.201Z,4.62
2023-02-27T09:25:59.354Z,9.52
2023-02-27T09:27:02.146Z,4.30
2023-02-27T09:28:05.102Z,4.62
2023-02-27T09:29:07.995Z,6.47
2023-02-27T09:30:11.499Z,3.50
2023-02-27T09:31:17.717Z,7.55
2023-02-27T09:32:20.707Z,4.22
2023-02-27T09:33:24.846Z,5.93
2023-02-27T09:34:27.692Z,7.17
2023-02-27T09:35:30.522Z,4.12
2023-02-27T09:36:33.663Z,5.60
2023-02-27T09:37:37.125Z,3.60
2023-02-27T09:38:41.376Z,4.93
2023-02-27T09:39:46.249Z,3.00
2023-02-27T09:40:53.079Z,5.12
2023-02-27T09:41:56.086Z,7.72
2023-02-27T09:43:10.333Z,3.90
2023-02-27T09:44:36.334Z,8.57
2023-02-27T09:45:50.332Z,4.75
2023-02-27T09:46:54.333Z,2.97
2023-02-27T09:48:08.601Z,6.00
2023-02-27T09:49:15.127Z,4.80
2023-02-27T09:50:40.752Z,4.87
2023-02-27T09:51:43.582Z,4.18
2023-02-27T09:52:46.590Z,5.18
2023-02-27T09:53:56.992Z,7.90
2023-02-27T09:55:00.634Z,5.87
2023-02-27T09:56:33.298Z,5.33
2023-02-27T09:58:06.882Z,3.97
2023-02-27T09:59:12.804Z,4.12
2023-02-27T10:00:27.712Z,4.07
2023-02-27T10:01:41.004Z,4.07
2023-02-27T10:03:09.985Z,5.00
2023-02-27T10:04:31.093Z,9.57
2023-02-27T10:06:01.966Z,5.28
2023-02-27T10:07:25.142Z,4.68
2023-02-27T10:08:39.346Z,7.53
2023-02-27T10:10:04.826Z,4.13
2023-02-27T10:11:11.060Z,4.37
2023-02-27T10:12:17.077Z,7.20
2023-02-27T10:13:44.485Z,6.25
2023-02-27T10:14:59.901Z,4.90
2023-02-27T10:16:04.139Z,5.35
2023-02-27T10:17:15.734Z,4.75
2023-02-27T10:18:29.019Z,4.55
2023-02-27T10:19:37.755Z,6.25
2023-02-27T10:20:58.765Z,4.87
2023-02-27T10:22:08.564Z,4.20
2023-02-27T10:23:19.339Z,4.30
2023-02-27T10:24:30.439Z,10.43
2023-02-27T10:25:38.228Z,6.05
2023-02-27T10:26:42.829Z,11.85
2023-02-27T10:27:53.716Z,7.75
2023-02-27T10:28:59.270Z,4.97
2023-02-27T10:30:29.986Z,5.53
2023-02-27T10:31:36.142Z,4.60
2023-02-27T10:32:40.350Z,5.53
2023-02-27T10:33:45.286Z,3.40
2023-02-27T10:34:58.915Z,4.23
2023-02-27T10:36:03.534Z,3.05
2023-02-27T10:37:07.334Z,4.47
2023-02-27T10:38:18.854Z,5.15
2023-02-27T10:39:23.317Z,4.60
2023-02-27T10:40:27.062Z,4.00
2023-02-27T10:41:30.823Z,3.97
2023-02-27T10:42:39.144Z,5.30
2023-02-27T10:43:43.664Z,5.90
2023-02-27T10:44:53.596Z,5.17
2023-02-27T10:45:56.848Z,4.80
2023-02-27T10:47:00.152Z,5.53
2023-02-27T10:48:04.776Z,5.87
2023-02-27T10:49:19.134Z,5.82
2023-02-27T10:50:26.042Z,4.37
2023-02-27T10:51:38.509Z,4.07
2023-02-27T10:53:00.723Z,4.85
2023-02-27T10:54:21.964Z,4.40
2023-02-27T10:55:33.708Z,3.97
2023-02-27T10:56:37.337Z,3.57
2023-02-27T10:57:43.757Z,3.97
2023-02-27T10:58:47.058Z,3.58
2023-02-27T10:59:53.711Z,5.10
2023-02-27T11:00:59.386Z,4.65
2023-02-27T11:02:06.267Z,5.18
2023-02-27T11:03:25.064Z,4.45
2023-02-27T11:04:39.638Z,3.92
2023-02-27T11:05:42.476Z,4.47
2023-02-27T11:06:52.673Z,4.75
2023-02-27T11:07:57.859Z,4.07
2023-02-27T11:09:27.332Z,4.10
2023-02-27T11:10:30.459Z,4.25
2023-02-27T11:11:33.438Z,4.00
2023-02-27T11:12:36.318Z,4.75
2023-02-27T11:13:45.642Z,4.70
2023-02-27T11:14:53.877Z,3.70
2023-02-27T11:16:06.456Z,4.10
2023-02-27T11:17:22.425Z,4.37
2023-02-27T11:18:28.800Z,3.80
2023-02-27T11:19:37.519Z,3.60
2023-02-27T11:20:43.536Z,5.03
2023-02-27T11:22:07.439Z,3.97
2023-02-27T11:23:25.988Z,4.22
2023-02-27T11:24:29.382Z,3.72
2023-02-27T11:25:33.688Z,3.75
2023-02-27T11:26:39.268Z,4.25
2023-02-27T11:27:42.814Z,3.70
2023-02-27T11:28:45.666Z,4.10
2023-02-27T11:30:02.513Z,4.03
2023-02-27T11:31:22.335Z,3.10
2023-02-27T11:32:29.929Z,4.33
2023-02-27T11:33:40.455Z,4.15
2023-02-27T11:34:50.932Z,3.72
2023-02-27T11:35:58.004Z,4.00
2023-02-27T11:37:08.024Z,4.37
2023-02-27T11:38:25.675Z,4.12
2023-02-27T11:39:37.075Z,5.55
2023-02-27T11:40:50.378Z,4.72
2023-02-27T11:41:56.770Z,4.10
2023-02-27T11:43:05.215Z,5.63
2023-02-27T11:44:17.897Z,3.87
2023-02-27T11:46:04.667Z,3.50
2023-02-27T11:47:17.004Z,4.28
2023-02-27T11:48:22.035Z,3.95
2023-02-27T11:49:37.336Z,3.92
2023-02-27T11:50:53.749Z,6.00
2023-02-27T11:52:07.204Z,6.03
2023-02-27T11:53:24.709Z,8.30
2023-02-27T11:54:38.964Z,5.62
2023-02-27T11:55:43.033Z,3.43
2023-02-27T11:57:00.314Z,9.23
2023-02-27T11:58:12.934Z,4.05
2023-02-27T11:59:27.597Z,3.70
2023-02-27T12:00:39.884Z,3.35
2023-02-27T12:01:56.206Z,4.93
2023-02-27T12:03:36.377Z,7.75
2023-02-27T12:04:59.868Z,5.45
2023-02-27T12:06:13.760Z,4.37
2023-02-27T12:08:12.825Z,4.80
2023-02-27T12:09:34.822Z,3.60
2023-02-27T12:10:49.748Z,3.70
2023-02-27T12:11:53.562Z,3.87
2023-02-27T12:13:06.639Z,4.15
2023-02-27T12:14:14.264Z,3.97
2023-02-27T12:15:41.768Z,3.92
2023-02-27T12:16:57.037Z,4.45
2023-02-27T12:18:13.053Z,3.60
2023-02-27T12:19:18.663Z,4.07
2023-02-27T12:20:34.335Z,4.18
2023-02-27T12:21:42.408Z,4.00
2023-02-27T12:22:49.253Z,3.80
2023-02-27T12:24:13.968Z,3.72
2023-02-27T12:25:37.910Z,4.35
2023-02-27T12:26:47.190Z,6.30
2023-02-27T12:27:59.267Z,5.30
2023-02-27T12:29:13.678Z,5.57
2023-02-27T12:30:22.644Z,3.53
2023-02-27T12:31:32.671Z,3.50
2023-02-27T12:33:11.185Z,3.83
2023-02-27T12:34:35.801Z,4.00
2023-02-27T12:35:40.828Z,4.10
2023-02-27T12:36:44.272Z,3.67
2023-02-27T12:37:47.837Z,3.90
2023-02-27T12:38:52.547Z,3.42
2023-02-27T12:39:59.524Z,3.30
2023-02-27T12:41:11.261Z,3.90
2023-02-27T12:42:20.224Z,3.95
2023-02-27T12:43:41.479Z,3.65
2023-02-27T12:45:15.642Z,3.80
2023-02-27T12:46:42.366Z,3.87
2023-02-27T12:48:03.425Z,3.60
2023-02-27T12:49:15.356Z,3.20
2023-02-27T12:50:19.835Z,3.53
2023-02-27T12:51:31.811Z,3.30
2023-02-27T12:52:43.626Z,3.70
2023-02-27T12:54:05.383Z,5.75
2023-02-27T12:55:21.093Z,5.37
2023-02-27T12:56:34.362Z,5.40
2023-02-27T12:57:44.950Z,4.05
2023-02-27T12:59:19.598Z,4.13
2023-02-27T13:00:26.761Z,4.30
2023-02-27T13:01:48.094Z,3.45
2023-02-27T13:03:17.670Z,4.00
2023-02-27T13:04:23.368Z,7.40
2023-02-27T13:05:49.007Z,12.68
2023-02-27T13:07:04.428Z,7.22
2023-02-27T13:08:32.256Z,4.70
2023-02-27T13:09:47.762Z,4.45
2023-02-27T13:11:02.801Z,5.40
2023-02-27T13:12:34.594Z,5.80
2023-02-27T13:13:48.074Z,5.07
2023-02-27T13:15:04.208Z,11.98
2023-02-27T13:16:15.907Z,7.03
2023-02-27T13:17:34.289Z,11.23
2023-02-27T13:18:59.490Z,8.65
2023-02-27T13:20:27.155Z,11.18
2023-02-27T13:21:39.977Z,7.50
2023-02-27T13:22:58.826Z,10.18
2023-02-27T13:24:17.036Z,6.87
2023-02-27T13:25:20.588Z,5.77
2023-02-27T13:26:29.560Z,8.03
2023-02-27T13:27:38.314Z,10.85
2023-02-27T13:28:41.907Z,22.90
2023-02-27T13:29:59.468Z,11.88
2023-02-27T13:31:19.681Z,10.32
2023-02-27T13:32:43.755Z,11.75
2023-02-27T13:34:08.825Z,10.38
2023-02-27T13:35:32.649Z,6.62
2023-02-27T13:36:46.833Z,6.40
2023-02-27T13:38:05.598Z,7.27
2023-02-27T13:39:41.403Z,5.20
2023-02-27T13:40:44.192Z,4.78
2023-02-27T13:41:46.998Z,8.38
2023-02-27T13:42:49.759Z,7.10
2023-02-27T13:43:57.192Z,4.93
2023-02-27T13:45:02.240Z,6.65
2023-02-27T13:46:28.452Z,3.65
2023-02-27T13:47:31.116Z,5.95
2023-02-27T13:48:33.848Z,4.97
2023-02-27T13:49:43.098Z,4.50
2023-02-27T13:50:50.453Z,4.80
2023-02-27T13:51:54.760Z,4.45
2023-02-27T13:53:09.662Z,4.72
2023-02-27T13:54:15.639Z,4.53
2023-02-27T13:55:27.412Z,4.78
2023-02-27T13:56:30.550Z,5.35
2023-02-27T13:57:37.311Z,5.95
2023-02-27T13:58:41.271Z,5.68
2023-02-27T13:59:53.199Z,4.37
2023-02-27T14:01:00.093Z,3.80
2023-02-27T14:02:11.843Z,4.50
2023-02-27T14:03:22.114Z,3.55
2023-02-27T14:04:28.588Z,5.45
2023-02-27T14:05:36.244Z,4.85
2023-02-27T14:06:45.829Z,8.63
2023-02-27T14:08:14.263Z,7.57
2023-02-27T14:09:22.274Z,6.50
2023-02-27T14:10:28.739Z,4.20
2023-02-27T14:11:34.531Z,3.90
2023-02-27T14:12:45.746Z,4.33
2023-02-27T14:13:56.935Z,5.97
2023-02-27T14:15:01.748Z,10.43
2023-02-27T14:16:06.091Z,4.70
2023-02-27T14:17:11.950Z,4.55
2023-02-27T14:18:57.317Z,4.37
2023-02-27T14:20:01.048Z,4.20
2023-02-27T14:21:03.996Z,5.40
2023-02-27T14:22:47.649Z,4.35
2023-02-27T14:23:50.434Z,4.43
2023-02-27T14:25:06.764Z,4.50
2023-02-27T14:26:21.243Z,5.10
2023-02-27T14:27:26.888Z,5.10
2023-02-27T14:28:46.528Z,4.80
2023-02-27T14:29:52.244Z,4.47
2023-02-27T14:31:04.416Z,5.45
2023-02-27T14:32:08.616Z,4.43
2023-02-27T14:33:37.584Z,4.40
2023-02-27T14:34:42.387Z,5.18
2023-02-27T14:35:57.089Z,4.28
2023-02-27T14:37:02.452Z,4.80
2023-02-27T14:38:11.263Z,4.00
2023-02-27T14:39:33.592Z,4.60
2023-02-27T14:40:43.829Z,4.15
2023-02-27T14:41:52.090Z,5.43
2023-02-27T14:43:18.080Z,5.53
2023-02-27T14:44:28.045Z,4.62
2023-02-27T14:45:31.655Z,4.55
2023-02-27T14:46:41.371Z,4.22
2023-02-27T14:47:45.824Z,4.50
2023-02-27T14:48:54.094Z,4.20
2023-02-27T14:49:57.622Z,4.17
2023-02-27T14:51:02.022Z,4.97
2023-02-27T14:52:12.800Z,6.03
2023-02-27T14:53:25.342Z,6.55
2023-02-27T14:54:28.511Z,6.32
2023-02-27T14:55:34.067Z,5.93
2023-02-27T14:56:36.896Z,5.10
2023-02-27T14:57:40.193Z,5.22
2023-02-27T14:58:55.562Z,5.93
2023-02-27T15:00:06.598Z,5.03
2023-02-27T15:01:10.960Z,4.50
2023-02-27T15:02:28.855Z,6.20
2023-02-27T15:03:37.629Z,4.93
2023-02-27T15:04:40.796Z,6.07
2023-02-27T15:05:44.077Z,4.30
2023-02-27T15:06:50.366Z,4.45
2023-02-27T15:07:53.995Z,4.55
2023-02-27T15:08:57.410Z,4.45
2023-02-27T15:10:04.473Z,5.28
2023-02-27T15:11:13.848Z,4.33
2023-02-27T15:12:20.088Z,5.20
2023-02-27T15:13:32.599Z,6.37
2023-02-27T15:14:40.422Z,6.15
2023-02-27T15:15:43.509Z,5.90
2023-02-27T15:16:47.216Z,4.28
2023-02-27T15:17:54.656Z,5.12
2023-02-27T15:19:05.286Z,5.03
2023-02-27T15:20:31.397Z,6.75
2023-02-27T15:21:40.423Z,6.80
2023-02-27T15:22:43.191Z,5.10
2023-02-27T15:23:57.374Z,6.62
2023-02-27T15:25:01.271Z,5.62
2023-02-27T15:26:04.508Z,6.72
2023-02-27T15:27:11.408Z,5.75
2023-02-27T15:28:23.509Z,13.10
2023-02-27T15:29:42.530Z,8.65
2023-02-27T15:30:50.533Z,10.50
2023-02-27T15:31:54.091Z,34.83
2023-02-27T15:32:57.774Z,9.73
2023-02-27T15:34:02.320Z,6.90
2023-02-27T15:35:30.145Z,8.98
2023-02-27T15:36:35.876Z,16.40
2023-02-27T15:37:39.524Z,9.30
2023-02-27T15:38:42.754Z,12.27
2023-02-27T15:42:14.457Z,13.10
2023-02-27T15:43:18.961Z,8.68
2023-02-27T15:44:27.781Z,8.15
2023-02-27T15:45:36.217Z,9.90
2023-02-27T15:46:39.382Z,15.30
2023-02-27T15:47:44.799Z,18.40
2023-02-27T15:48:53.972Z,14.50
2023-02-27T15:50:09.001Z,9.73
2023-02-27T15:51:12.223Z,39.70
2023-02-27T15:52:26.564Z,19.15
2023-02-27T15:53:34.141Z,50.20
2023-02-27T15:54:43.114Z,39.53
2023-02-27T15:56:01.016Z,12.98
2023-02-27T15:57:05.681Z,14.75
2023-02-27T15:58:30.707Z,6.27
2023-02-27T15:59:37.596Z,35.63
2023-02-27T16:00:42.376Z,22.35
2023-02-27T16:01:58.208Z,8.75
2023-02-27T16:03:02.316Z,8.90
2023-02-27T16:04:20.663Z,55.00
2023-02-27T16:05:36.190Z,34.65
2023-02-27T16:06:41.360Z,14.15
2023-02-27T16:07:45.583Z,17.15
2023-02-27T16:09:01.792Z,20.80
2023-02-27T16:10:17.487Z,13.63
2023-02-27T16:11:28.150Z,9.32
2023-02-27T16:12:38.232Z,11.82
2023-02-27T16:13:41.983Z,15.70
2023-02-27T16:14:45.512Z,7.45
2023-02-27T16:16:00.480Z,8.85
2023-02-27T16:17:04.264Z,8.07
2023-02-27T16:18:08.239Z,17.95
2023-02-27T16:19:46.092Z,16.98
2023-02-27T16:20:55.039Z,27.83
2023-02-27T16:22:07.064Z,8.77
2023-02-27T16:23:09.923Z,12.18
2023-02-27T16:24:29.955Z,19.85
2023-02-27T16:25:34.832Z,10.10
2023-02-27T16:26:37.951Z,11.52
2023-02-27T16:27:50.167Z,13.45
2023-02-27T16:29:14.138Z,13.70
2023-02-27T16:30:20.169Z,17.58
2023-02-27T16:31:47.038Z,11.48
2023-02-27T16:33:00.112Z,22.42
2023-02-27T16:34:14.054Z,19.97
2023-02-27T16:35:24.233Z,14.73
2023-02-27T16:36:30.792Z,11.80
2023-02-27T16:37:40.482Z,12.25
2023-02-27T16:38:44.210Z,7.37
2023-02-27T16:39:50.138Z,7.80
2023-02-27T16:40:56.596Z,8.43
2023-02-27T16:42:02.613Z,11.05
2023-02-27T16:43:07.320Z,10.48
2023-02-27T16:44:11.426Z,9.05
2023-02-27T16:45:17.389Z,12.50
2023-02-27T16:46:22.040Z,17.47
2023-02-27T16:47:28.957Z,17.10
2023-02-27T16:48:32.325Z,18.00
2023-02-27T16:49:35.956Z,16.77
2023-02-27T16:50:43.104Z,27.95
2023-02-27T16:51:47.505Z,20.62
2023-02-27T16:52:51.117Z,18.35
2023-02-27T16:53:56.707Z,21.15
2023-02-27T16:54:59.782Z,19.62
2023-02-27T16:56:03.124Z,10.63
2023-02-27T16:57:06.644Z,10.52
2023-02-27T16:58:17.057Z,8.88
2023-02-27T16:59:26.974Z,6.20
2023-02-27T17:00:36.478Z,7.28
2023-02-27T17:01:39.683Z,8.90
2023-02-27T17:02:45.086Z,12.18
2023-02-27T17:03:49.078Z,7.90
2023-02-27T17:04:52.446Z,8.82
2023-02-27T17:05:58.518Z,15.00
2023-02-27T17:07:07.789Z,14.50
2023-02-27T17:08:13.003Z,12.17
2023-02-27T17:09:16.673Z,14.90
2023-02-27T17:10:22.469Z,17.35
2023-02-27T17:11:25.227Z,17.85
2023-02-27T17:12:28.847Z,14.20
2023-02-27T17:13:36.603Z,16.33
2023-02-27T17:14:39.866Z,16.55
2023-02-27T17:15:43.134Z,17.67
2023-02-27T17:16:47.926Z,14.18
2023-02-27T17:17:52.573Z,12.00
2023-02-27T17:18:58.280Z,9.90
2023-02-27T17:20:02.052Z,16.10
2023-02-27T17:21:05.701Z,10.02
2023-02-27T17:22:09.198Z,7.40
2023-02-27T17:23:14.414Z,8.60
2023-02-27T17:24:18.238Z,6.50
2023-02-27T17:25:23.428Z,6.78
2023-02-27T17:26:27.448Z,6.97
2023-02-27T17:27:30.880Z,8.35
2023-02-27T17:28:34.317Z,6.97
2023-02-27T17:29:39.332Z,6.15
2023-02-27T17:30:43.001Z,6.15
2023-02-27T17:31:46.752Z,7.25
2023-02-27T17:32:51.489Z,8.07
2023-02-27T17:33:55.684Z,11.18
2023-02-27T17:34:59.456Z,17.17
2023-02-27T17:36:10.888Z,12.70
2023-02-27T17:37:15.627Z,8.07
2023-02-27T17:38:19.557Z,8.13
2023-02-27T17:39:23.578Z,6.93
2023-02-27T17:40:27.810Z,8.23
2023-02-27T17:41:32.969Z,9.60
2023-02-27T17:42:37.788Z,9.93
2023-02-27T17:43:43.683Z,12.95
2023-02-27T17:44:48.969Z,12.85
2023-02-27T17:45:53.141Z,8.93
2023-02-27T17:46:57.457Z,7.75
2023-02-27T17:48:01.834Z,8.23
2023-02-27T17:49:06.302Z,9.02
2023-02-27T17:50:11.025Z,8.30
2023-02-27T17:51:18.929Z,6.47
2023-02-27T17:52:22.831Z,8.45
2023-02-27T17:53:27.075Z,8.10
2023-02-27T17:54:31.791Z,9.90
2023-02-27T17:55:37.070Z,16.98
2023-02-27T17:56:43.861Z,16.90
2023-02-27T17:57:48.002Z,11.43
2023-02-27T17:58:53.070Z,9.32
2023-02-27T17:59:58.922Z,9.82
2023-02-27T18:01:12.523Z,18.57
2023-02-27T18:02:17.913Z,23.58
2023-02-27T18:03:26.607Z,20.70
2023-02-27T18:04:31.760Z,13.95
2023-02-27T18:05:36.007Z,15.00
2023-02-27T18:06:40.480Z,19.42
2023-02-27T18:07:44.631Z,31.42
2023-02-27T18:08:48.879Z,34.65
2023-02-27T18:09:53.820Z,36.90
2023-02-27T18:10:59.102Z,28.45
2023-02-27T18:12:04.354Z,26.83
2023-02-27T18:13:08.859Z,26.00
2023-02-27T18:14:15.112Z,32.50
2023-02-27T18:15:21.622Z,47.47
2023-02-27T18:16:28.071Z,55.25
2023-02-27T18:17:33.250Z,38.35
2023-02-27T18:18:39.683Z,30.62
2023-02-27T18:19:44.112Z,16.50
2023-02-27T18:20:48.509Z,12.40
2023-02-27T18:21:52.350Z,13.32
2023-02-27T18:22:56.610Z,13.50
2023-02-27T18:24:00.956Z,23.05
2023-02-27T18:25:05.875Z,21.02
2023-02-27T18:26:27.078Z,10.68
2023-02-27T18:27:39.318Z,11.30
2023-02-27T18:28:43.683Z,13.02
2023-02-27T18:29:49.741Z,12.60
2023-02-27T18:30:55.300Z,12.20
2023-02-27T18:32:00.952Z,15.80
2023-02-27T18:33:07.951Z,9.63
2023-02-27T18:34:15.328Z,8.17
2023-02-27T18:35:23.593Z,8.90
2023-02-27T18:36:28.252Z,7.80
2023-02-27T18:37:32.987Z,7.35
2023-02-27T18:38:38.256Z,7.93
2023-02-27T18:39:45.158Z,7.03
2023-02-27T18:40:52.991Z,7.53
2023-02-27T18:41:56.555Z,6.57
2023-02-27T18:43:04.956Z,5.85
2023-02-27T18:44:15.582Z,6.70
2023-02-27T18:45:23.347Z,6.23
2023-02-27T18:46:35.919Z,5.85
2023-02-27T18:47:46.054Z,10.20
2023-02-27T18:48:51.437Z,6.35
2023-02-27T18:50:03.530Z,6.60
2023-02-27T18:51:27.786Z,10.48
2023-02-27T18:52:42.703Z,14.80
2023-02-27T18:53:50.528Z,13.62
2023-02-27T18:54:54.478Z,12.90
2023-02-27T18:56:03.235Z,7.53
2023-02-27T18:57:07.427Z,9.53
2023-02-27T18:58:15.199Z,9.85
2023-02-27T18:59:19.443Z,8.35
2023-02-27T19:00:24.734Z,9.20
2023-02-27T19:01:32.323Z,10.15
2023-02-27T19:02:41.896Z,6.28
2023-02-27T19:03:46.673Z,13.00
2023-02-27T19:04:52.213Z,7.93
2023-02-27T19:05:56.505Z,10.05
2023-02-27T19:07:01.079Z,18.60
2023-02-27T19:08:05.304Z,10.47
2023-02-27T19:09:12.969Z,10.85
2023-02-27T19:10:17.306Z,16.45
2023-02-27T19:11:24.215Z,8.20
2023-02-27T19:12:27.928Z,11.85
2023-02-27T19:13:33.293Z,13.88
2023-02-27T19:14:38.608Z,9.68
2023-02-27T19:15:42.753Z,10.90
2023-02-27T19:16:46.986Z,9.75
2023-02-27T19:17:53.053Z,8.60
2023-02-27T19:18:58.861Z,8.73
2023-02-27T19:20:04.382Z,8.48
2023-02-27T19:21:09.826Z,6.50
2023-02-27T19:22:13.624Z,9.60
2023-02-27T19:23:17.780Z,12.07
2023-02-27T19:24:23.695Z,10.57
2023-02-27T19:25:27.814Z,12.02
2023-02-27T19:26:34.720Z,13.57
2023-02-27T19:27:39.715Z,14.48
2023-02-27T19:28:44.044Z,14.27
2023-02-27T19:29:48.624Z,13.37
2023-02-27T19:30:53.208Z,12.97
2023-02-27T19:31:56.687Z,24.70
2023-02-27T19:33:01.391Z,10.32
2023-02-27T19:34:06.154Z,13.70
2023-02-27T19:35:14.916Z,13.13
2023-02-27T19:36:22.906Z,16.12
2023-02-27T19:37:28.298Z,14.20
2023-02-27T19:38:33.683Z,11.00
2023-02-27T19:39:38.100Z,8.93
2023-02-27T19:40:41.930Z,11.93
2023-02-27T19:41:46.531Z,14.48
2023-02-27T19:42:50.898Z,12.85
2023-02-27T19:43:55.793Z,8.18
2023-02-27T19:45:01.436Z,13.68
2023-02-27T19:46:11.339Z,8.85
2023-02-27T19:47:15.260Z,8.48
2023-02-27T19:48:20.458Z,8.77
2023-02-27T19:49:24.977Z,7.85
2023-02-27T19:50:30.997Z,10.80
2023-02-27T19:51:36.869Z,6.97
2023-02-27T19:52:41.901Z,6.75
2023-02-27T19:53:49.199Z,6.40
2023-02-27T19:54:55.018Z,6.22
2023-02-27T19:56:04.264Z,10.85
2023-02-27T19:57:09.249Z,9.35
2023-02-27T19:58:14.888Z,8.13
2023-02-27T19:59:25.897Z,23.23
2023-02-27T20:00:32.989Z,9.50
2023-02-27T20:01:39.540Z,7.57
2023-02-27T20:02:43.940Z,13.90
2023-02-27T20:03:48.173Z,7.93
2023-02-27T20:04:52.035Z,13.38
2023-02-27T20:05:56.679Z,10.25
2023-02-27T20:07:02.723Z,19.55
2023-02-27T20:08:07.204Z,16.70
2023-02-27T20:09:16.122Z,17.12
2023-02-27T20:10:25.063Z,8.02
2023-02-27T20:11:33.342Z,9.15
2023-02-27T20:12:37.932Z,8.57
2023-02-27T20:13:41.497Z,9.20
2023-02-27T20:14:44.846Z,11.40
2023-02-27T20:16:08.799Z,9.02
2023-02-27T20:17:17.111Z,6.93
2023-02-27T20:18:23.409Z,6.28
2023-02-27T20:19:29.041Z,6.68
2023-02-27T20:20:34.599Z,6.57
2023-02-27T20:21:39.879Z,7.10
2023-02-27T20:22:46.522Z,7.35
2023-02-27T20:23:54.607Z,6.90
2023-02-27T20:25:00.530Z,5.77
2023-02-27T20:26:33.422Z,6.60
2023-02-27T20:27:38.715Z,6.60
2023-02-27T20:28:43.667Z,11.30
2023-02-27T20:29:55.843Z,6.82
2023-02-27T20:30:59.925Z,12.57
2023-02-27T20:32:04.633Z,5.85
2023-02-27T20:33:08.822Z,8.43
2023-02-27T20:34:16.968Z,7.10
2023-02-27T20:35:21.521Z,6.20
2023-02-27T20:36:25.908Z,5.83
2023-02-27T20:37:33.119Z,6.45
2023-02-27T20:38:40.487Z,6.70
2023-02-27T20:39:45.899Z,5.70
2023-02-27T20:40:50.503Z,4.45
2023-02-27T20:41:55.806Z,5.40
2023-02-27T20:42:59.925Z,5.55
2023-02-27T20:44:05.653Z,7.12
2023-02-27T20:45:09.587Z,7.32
2023-02-27T20:46:21.250Z,8.40
2023-02-27T20:47:26.131Z,7.47
2023-02-27T20:48:29.989Z,5.85
2023-02-27T20:49:34.385Z,6.32
2023-02-27T20:50:38.626Z,5.87
2023-02-27T20:51:43.638Z,6.70
2023-02-27T20:52:47.890Z,5.30
2023-02-27T20:53:55.798Z,5.15
2023-02-27T20:55:01.348Z,6.05
2023-02-27T20:56:06.814Z,6.28
2023-02-27T20:57:11.431Z,5.10
2023-02-27T20:58:18.602Z,6.00
2023-02-27T20:59:25.155Z,6.43
2023-02-27T21:00:32.798Z,5.75
2023-02-27T21:01:38.466Z,5.18
2023-02-27T21:02:42.748Z,5.70
2023-02-27T21:03:47.585Z,4.85
2023-02-27T21:04:53.557Z,4.87
2023-02-27T21:06:00.309Z,5.55
2023-02-27T21:07:04.212Z,6.00
2023-02-27T21:08:07.798Z,6.03
2023-02-27T21:09:11.148Z,4.90
2023-02-27T21:10:16.245Z,5.10
2023-02-27T21:11:26.828Z,5.60
2023-02-27T21:12:30.650Z,6.40
2023-02-27T21:13:34.303Z,5.28
2023-02-27T21:14:38.036Z,5.53
2023-02-27T21:15:41.503Z,5.43
2023-02-27T21:16:45.019Z,5.32
2023-02-27T21:17:49.171Z,5.30
2023-02-27T21:18:54.288Z,5.35
2023-02-27T21:19:57.612Z,4.73
2023-02-27T21:21:08.946Z,5.15
2023-02-27T21:22:12.174Z,4.90
2023-02-27T21:23:15.101Z,5.30
2023-02-27T21:24:18.971Z,6.12
2023-02-27T21:25:23.805Z,5.20
2023-02-27T21:26:35.315Z,5.25
2023-02-27T21:27:38.914Z,5.37
2023-02-27T21:28:47.906Z,5.28
2023-02-27T21:29:52.911Z,5.22
2023-02-27T21:31:03.961Z,5.13
2023-02-27T21:32:11.108Z,4.72
2023-02-27T21:33:14.319Z,5.25
2023-02-27T21:35:00.756Z,5.47
2023-02-27T21:36:04.531Z,5.72
2023-02-27T21:37:10.276Z,4.93
2023-02-27T21:38:14.600Z,4.93
2023-02-27T21:39:23.403Z,5.57
2023-02-27T21:40:26.542Z,4.85
2023-02-27T21:41:30.822Z,5.50
2023-02-27T21:42:33.999Z,4.87
2023-02-27T21:43:37.054Z,4.82
2023-02-27T21:44:40.320Z,5.07
2023-02-27T21:45:47.782Z,4.85
2023-02-27T21:46:51.149Z,5.60
2023-02-27T21:47:54.146Z,4.90
2023-02-27T21:48:57.523Z,4.95
2023-02-27T21:50:00.311Z,5.18
2023-02-27T21:51:04.863Z,4.95
2023-02-27T21:52:08.026Z,5.12
2023-02-27T21:53:11.182Z,4.43
2023-02-27T21:54:15.600Z,5.25
2023-02-27T21:55:18.542Z,5.10
2023-02-27T21:56:21.352Z,5.62
2023-02-27T21:57:24.658Z,4.90
2023-02-27T21:58:27.623Z,5.10
2023-02-27T21:59:31.149Z,5.00
2023-02-27T22:00:37.194Z,5.30
2023-02-27T22:01:40.815Z,5.43
2023-02-27T22:02:43.639Z,8.10
2023-02-27T22:03:48.687Z,11.10
2023-02-27T22:04:51.749Z,7.20
2023-02-27T22:05:54.624Z,12.35
2023-02-27T22:06:57.760Z,7.32
2023-02-27T22:08:00.469Z,5.85
2023-02-27T22:09:07.179Z,4.68
2023-02-27T22:10:10.600Z,4.60
2023-02-27T22:13:35.852Z,4.22
2023-02-27T22:14:39.680Z,5.18
2023-02-27T22:15:42.761Z,4.87
2023-02-27T22:16:45.649Z,4.40
2023-02-27T22:17:50.659Z,4.97
2023-02-27T22:18:53.643Z,4.85
2023-02-27T22:20:10.064Z,4.85
2023-02-27T22:21:18.641Z,4.00
2023-02-27T22:22:21.436Z,4.57
2023-02-27T22:23:24.197Z,4.97
2023-02-27T22:24:27.005Z,4.55
2023-02-27T22:25:30.339Z,4.90
2023-02-27T22:26:33.622Z,4.37